sensor_id;sensor_type;location;lat;lon;timestamp;P1;durP1;ratioP1;P2;durP2;ratioP2
54368;SDS011;40266;52.434;17.056;2023-06-24T00:02:41;15.80;;;7.10;;
54368;SDS011;40266;52.434;17.056;2023-06-24T00:05:48;13.10;;;6.50;;
54368;SDS011;40266;52.434;17.056;2023-06-24T00:08:44;16.00;;;6.70;;
54368;SDS011;40266;52.434;17.056;2023-06-24T00:11:50;11.20;;;6.80;;
54368;SDS011;40266;52.434;17.056;2023-06-24T00:15:06;16.70;;;6.90;;
54368;SDS011;40266;52.434;17.056;2023-06-24T00:18:31;12.10;;;5.90;;
54368;SDS011;40266;52.434;17.056;2023-06-24T00:24:24;16.40;;;7.30;;
54368;SDS011;40266;52.434;17.056;2023-06-24T00:27:32;15.90;;;6.70;;
54368;SDS011;40266;52.434;17.056;2023-06-24T00:30:38;9.40;;;6.30;;
54368;SDS011;40266;52.434;17.056;2023-06-24T00:33:54;12.80;;;7.00;;
54368;SDS011;40266;52.434;17.056;2023-06-24T00:36:56;13.20;;;7.00;;
54368;SDS011;40266;52.434;17.056;2023-06-24T00:39:42;11.60;;;6.50;;
54368;SDS011;40266;52.434;17.056;2023-06-24T00:42:46;10.60;;;6.70;;
54368;SDS011;40266;52.434;17.056;2023-06-24T00:45:44;10.30;;;6.30;;
54368;SDS011;40266;52.434;17.056;2023-06-24T00:48:45;11.00;;;6.70;;
54368;SDS011;40266;52.434;17.056;2023-06-24T00:51:49;11.00;;;7.30;;
54368;SDS011;40266;52.434;17.056;2023-06-24T00:55:02;9.10;;;6.50;;
54368;SDS011;40266;52.434;17.056;2023-06-24T00:57:49;11.50;;;6.40;;
54368;SDS011;40266;52.434;17.056;2023-06-24T01:01:08;14.20;;;7.50;;
54368;SDS011;40266;52.434;17.056;2023-06-24T01:03:55;12.90;;;6.70;;
54368;SDS011;40266;52.434;17.056;2023-06-24T01:07:19;9.00;;;6.60;;
54368;SDS011;40266;52.434;17.056;2023-06-24T01:10:06;9.30;;;6.40;;
54368;SDS011;40266;52.434;17.056;2023-06-24T01:12:55;10.90;;;6.80;;
54368;SDS011;40266;52.434;17.056;2023-06-24T01:18:48;10.70;;;5.80;;
54368;SDS011;40266;52.434;17.056;2023-06-24T01:25:00;11.50;;;6.70;;
54368;SDS011;40266;52.434;17.056;2023-06-24T01:37:51;10.20;;;6.10;;
54368;SDS011;40266;52.434;17.056;2023-06-24T01:40:38;11.90;;;5.50;;
54368;SDS011;40266;52.434;17.056;2023-06-24T01:43:31;11.90;;;5.70;;
54368;SDS011;40266;52.434;17.056;2023-06-24T01:46:16;9.70;;;5.40;;
54368;SDS011;40266;52.434;17.056;2023-06-24T01:49:07;11.10;;;6.20;;
54368;SDS011;40266;52.434;17.056;2023-06-24T01:52:00;9.00;;;5.50;;
54368;SDS011;40266;52.434;17.056;2023-06-24T01:55:10;13.30;;;7.00;;
54368;SDS011;40266;52.434;17.056;2023-06-24T01:58:04;10.90;;;6.30;;
54368;SDS011;40266;52.434;17.056;2023-06-24T02:00:50;9.60;;;5.60;;
54368;SDS011;40266;52.434;17.056;2023-06-24T02:03:45;10.20;;;5.30;;
54368;SDS011;40266;52.434;17.056;2023-06-24T02:06:31;9.80;;;5.40;;
54368;SDS011;40266;52.434;17.056;2023-06-24T02:09:18;7.00;;;5.00;;
54368;SDS011;40266;52.434;17.056;2023-06-24T02:12:13;16.60;;;6.70;;
54368;SDS011;40266;52.434;17.056;2023-06-24T02:15:05;7.60;;;5.30;;
54368;SDS011;40266;52.434;17.056;2023-06-24T02:18:00;9.70;;;5.50;;
54368;SDS011;40266;52.434;17.056;2023-06-24T02:26:53;9.90;;;5.80;;
54368;SDS011;40266;52.434;17.056;2023-06-24T02:29:46;11.80;;;5.90;;
54368;SDS011;40266;52.434;17.056;2023-06-24T02:32:51;10.40;;;6.00;;
54368;SDS011;40266;52.434;17.056;2023-06-24T02:35:37;10.50;;;6.10;;
54368;SDS011;40266;52.434;17.056;2023-06-24T02:38:31;13.20;;;6.20;;
54368;SDS011;40266;52.434;17.056;2023-06-24T02:44:12;12.80;;;6.40;;
54368;SDS011;40266;52.434;17.056;2023-06-24T02:49:50;9.70;;;5.30;;
54368;SDS011;40266;52.434;17.056;2023-06-24T02:52:59;10.60;;;6.00;;
54368;SDS011;40266;52.434;17.056;2023-06-24T02:56:06;8.30;;;5.60;;
54368;SDS011;40266;52.434;17.056;2023-06-24T02:58:49;10.60;;;6.60;;
54368;SDS011;40266;52.434;17.056;2023-06-24T03:01:41;12.80;;;6.40;;
54368;SDS011;40266;52.434;17.056;2023-06-24T03:04:36;8.80;;;6.00;;
54368;SDS011;40266;52.434;17.056;2023-06-24T03:08:01;19.40;;;6.40;;
54368;SDS011;40266;52.434;17.056;2023-06-24T03:11:12;12.60;;;6.00;;
54368;SDS011;40266;52.434;17.056;2023-06-24T03:14:08;11.60;;;6.50;;
54368;SDS011;40266;52.434;17.056;2023-06-24T03:16:58;9.80;;;5.90;;
54368;SDS011;40266;52.434;17.056;2023-06-24T03:20:02;10.60;;;5.70;;
54368;SDS011;40266;52.434;17.056;2023-06-24T03:22:58;12.40;;;6.60;;
54368;SDS011;40266;52.434;17.056;2023-06-24T03:26:07;10.30;;;6.30;;
54368;SDS011;40266;52.434;17.056;2023-06-24T03:32:15;11.50;;;6.40;;
54368;SDS011;40266;52.434;17.056;2023-06-24T03:35:02;12.40;;;6.70;;
54368;SDS011;40266;52.434;17.056;2023-06-24T03:38:05;10.40;;;5.70;;
54368;SDS011;40266;52.434;17.056;2023-06-24T03:41:10;10.50;;;6.20;;
54368;SDS011;40266;52.434;17.056;2023-06-24T03:50:16;9.70;;;6.60;;
54368;SDS011;40266;52.434;17.056;2023-06-24T03:56:37;10.90;;;6.60;;
54368;SDS011;40266;52.434;17.056;2023-06-24T03:59:23;14.10;;;6.60;;
54368;SDS011;40266;52.434;17.056;2023-06-24T04:02:10;15.00;;;6.60;;
54368;SDS011;40266;52.434;17.056;2023-06-24T04:05:24;13.60;;;6.80;;
54368;SDS011;40266;52.434;17.056;2023-06-24T04:08:09;13.90;;;7.30;;
54368;SDS011;40266;52.434;17.056;2023-06-24T04:11:44;13.00;;;6.70;;
54368;SDS011;40266;52.434;17.056;2023-06-24T04:17:25;10.70;;;7.30;;
54368;SDS011;40266;52.434;17.056;2023-06-24T04:20:21;15.10;;;7.70;;
54368;SDS011;40266;52.434;17.056;2023-06-24T04:26:31;13.10;;;7.60;;
54368;SDS011;40266;52.434;17.056;2023-06-24T04:29:35;17.50;;;8.20;;
54368;SDS011;40266;52.434;17.056;2023-06-24T04:33:00;12.70;;;7.50;;
54368;SDS011;40266;52.434;17.056;2023-06-24T04:38:47;11.60;;;7.00;;
54368;SDS011;40266;52.434;17.056;2023-06-24T04:41:53;16.80;;;7.50;;
54368;SDS011;40266;52.434;17.056;2023-06-24T04:44:56;11.10;;;6.90;;
54368;SDS011;40266;52.434;17.056;2023-06-24T04:48:05;11.40;;;7.20;;
54368;SDS011;40266;52.434;17.056;2023-06-24T04:51:09;11.60;;;7.00;;
54368;SDS011;40266;52.434;17.056;2023-06-24T04:54:01;15.40;;;7.40;;
54368;SDS011;40266;52.434;17.056;2023-06-24T04:56:48;11.50;;;6.90;;
54368;SDS011;40266;52.434;17.056;2023-06-24T04:59:49;15.30;;;6.80;;
54368;SDS011;40266;52.434;17.056;2023-06-24T05:02:32;12.00;;;6.60;;
54368;SDS011;40266;52.434;17.056;2023-06-24T05:05:28;16.30;;;7.30;;
54368;SDS011;40266;52.434;17.056;2023-06-24T05:08:38;10.20;;;5.90;;
54368;SDS011;40266;52.434;17.056;2023-06-24T05:11:34;11.70;;;6.80;;
54368;SDS011;40266;52.434;17.056;2023-06-24T05:14:18;12.40;;;6.60;;
54368;SDS011;40266;52.434;17.056;2023-06-24T05:17:20;14.30;;;7.30;;
54368;SDS011;40266;52.434;17.056;2023-06-24T05:26:09;14.00;;;7.40;;
54368;SDS011;40266;52.434;17.056;2023-06-24T05:29:10;10.70;;;6.80;;
54368;SDS011;40266;52.434;17.056;2023-06-24T05:31:54;12.70;;;7.00;;
54368;SDS011;40266;52.434;17.056;2023-06-24T05:34:58;13.30;;;6.60;;
54368;SDS011;40266;52.434;17.056;2023-06-24T05:37:54;11.90;;;7.10;;
54368;SDS011;40266;52.434;17.056;2023-06-24T05:40:45;12.70;;;7.50;;
54368;SDS011;40266;52.434;17.056;2023-06-24T05:43:34;11.60;;;7.20;;
54368;SDS011;40266;52.434;17.056;2023-06-24T05:46:19;11.10;;;7.40;;
54368;SDS011;40266;52.434;17.056;2023-06-24T05:49:11;11.80;;;7.20;;
54368;SDS011;40266;52.434;17.056;2023-06-24T05:52:04;11.00;;;6.60;;
54368;SDS011;40266;52.434;17.056;2023-06-24T05:54:55;13.00;;;7.20;;
54368;SDS011;40266;52.434;17.056;2023-06-24T05:57:38;10.50;;;6.70;;
54368;SDS011;40266;52.434;17.056;2023-06-24T06:00:41;11.70;;;7.00;;
54368;SDS011;40266;52.434;17.056;2023-06-24T06:03:27;14.10;;;7.10;;
54368;SDS011;40266;52.434;17.056;2023-06-24T06:06:11;10.20;;;6.50;;
54368;SDS011;40266;52.434;17.056;2023-06-24T06:08:54;11.80;;;6.50;;
54368;SDS011;40266;52.434;17.056;2023-06-24T06:11:42;11.80;;;6.60;;
54368;SDS011;40266;52.434;17.056;2023-06-24T06:14:33;12.50;;;5.90;;
54368;SDS011;40266;52.434;17.056;2023-06-24T06:17:24;11.50;;;5.90;;
54368;SDS011;40266;52.434;17.056;2023-06-24T06:20:07;12.20;;;5.70;;
54368;SDS011;40266;52.434;17.056;2023-06-24T06:22:54;9.30;;;5.80;;
54368;SDS011;40266;52.434;17.056;2023-06-24T06:25:50;9.20;;;5.50;;
54368;SDS011;40266;52.434;17.056;2023-06-24T06:28:36;11.50;;;6.30;;
54368;SDS011;40266;52.434;17.056;2023-06-24T06:31:25;12.30;;;5.60;;
54368;SDS011;40266;52.434;17.056;2023-06-24T06:34:11;9.60;;;5.20;;
54368;SDS011;40266;52.434;17.056;2023-06-24T06:36:57;9.10;;;4.90;;
54368;SDS011;40266;52.434;17.056;2023-06-24T06:39:54;9.60;;;6.10;;
54368;SDS011;40266;52.434;17.056;2023-06-24T06:42:40;12.60;;;6.50;;
54368;SDS011;40266;52.434;17.056;2023-06-24T06:45:36;13.60;;;6.10;;
54368;SDS011;40266;52.434;17.056;2023-06-24T06:48:19;8.30;;;5.40;;
54368;SDS011;40266;52.434;17.056;2023-06-24T06:51:05;9.60;;;5.50;;
54368;SDS011;40266;52.434;17.056;2023-06-24T06:53:51;8.40;;;5.50;;
54368;SDS011;40266;52.434;17.056;2023-06-24T06:56:48;11.20;;;6.10;;
54368;SDS011;40266;52.434;17.056;2023-06-24T06:59:31;10.50;;;5.80;;
54368;SDS011;40266;52.434;17.056;2023-06-24T07:02:15;13.80;;;6.40;;
54368;SDS011;40266;52.434;17.056;2023-06-24T07:04:58;9.70;;;6.70;;
54368;SDS011;40266;52.434;17.056;2023-06-24T07:10:47;10.00;;;5.70;;
54368;SDS011;40266;52.434;17.056;2023-06-24T07:13:37;9.10;;;5.90;;
54368;SDS011;40266;52.434;17.056;2023-06-24T07:16:28;11.40;;;6.10;;
54368;SDS011;40266;52.434;17.056;2023-06-24T07:19:21;11.50;;;5.90;;
54368;SDS011;40266;52.434;17.056;2023-06-24T07:22:09;13.80;;;6.50;;
54368;SDS011;40266;52.434;17.056;2023-06-24T07:25:03;10.60;;;6.50;;
54368;SDS011;40266;52.434;17.056;2023-06-24T07:28:07;10.80;;;6.80;;
54368;SDS011;40266;52.434;17.056;2023-06-24T07:30:54;12.80;;;6.90;;
54368;SDS011;40266;52.434;17.056;2023-06-24T07:33:38;12.30;;;6.20;;
54368;SDS011;40266;52.434;17.056;2023-06-24T07:36:23;10.40;;;6.60;;
54368;SDS011;40266;52.434;17.056;2023-06-24T07:39:09;12.80;;;6.20;;
54368;SDS011;40266;52.434;17.056;2023-06-24T07:41:52;9.40;;;6.40;;
54368;SDS011;40266;52.434;17.056;2023-06-24T07:44:36;10.20;;;6.00;;
54368;SDS011;40266;52.434;17.056;2023-06-24T07:47:22;12.60;;;7.40;;
54368;SDS011;40266;52.434;17.056;2023-06-24T07:50:08;10.70;;;6.50;;
54368;SDS011;40266;52.434;17.056;2023-06-24T07:52:53;11.40;;;6.10;;
54368;SDS011;40266;52.434;17.056;2023-06-24T07:55:36;8.80;;;5.80;;
54368;SDS011;40266;52.434;17.056;2023-06-24T07:58:20;9.60;;;5.50;;
54368;SDS011;40266;52.434;17.056;2023-06-24T08:01:03;9.20;;;5.80;;
54368;SDS011;40266;52.434;17.056;2023-06-24T08:03:49;6.00;;;4.40;;
54368;SDS011;40266;52.434;17.056;2023-06-24T08:06:33;8.40;;;5.10;;
54368;SDS011;40266;52.434;17.056;2023-06-24T08:09:36;8.40;;;5.50;;
54368;SDS011;40266;52.434;17.056;2023-06-24T08:12:19;5.90;;;4.70;;
54368;SDS011;40266;52.434;17.056;2023-06-24T08:15:05;7.70;;;4.60;;
54368;SDS011;40266;52.434;17.056;2023-06-24T08:17:52;9.30;;;5.50;;
54368;SDS011;40266;52.434;17.056;2023-06-24T08:20:40;9.90;;;5.40;;
54368;SDS011;40266;52.434;17.056;2023-06-24T08:23:23;10.30;;;5.60;;
54368;SDS011;40266;52.434;17.056;2023-06-24T08:26:06;9.60;;;5.20;;
54368;SDS011;40266;52.434;17.056;2023-06-24T08:28:59;8.60;;;5.40;;
54368;SDS011;40266;52.434;17.056;2023-06-24T08:31:46;7.90;;;5.30;;
54368;SDS011;40266;52.434;17.056;2023-06-24T08:34:29;9.60;;;5.40;;
54368;SDS011;40266;52.434;17.056;2023-06-24T08:37:12;8.80;;;4.80;;
54368;SDS011;40266;52.434;17.056;2023-06-24T08:40:04;9.20;;;5.60;;
54368;SDS011;40266;52.434;17.056;2023-06-24T08:42:48;9.00;;;5.50;;
54368;SDS011;40266;52.434;17.056;2023-06-24T08:45:31;9.90;;;5.20;;
54368;SDS011;40266;52.434;17.056;2023-06-24T08:48:15;10.60;;;6.10;;
54368;SDS011;40266;52.434;17.056;2023-06-24T08:51:01;10.50;;;5.50;;
54368;SDS011;40266;52.434;17.056;2023-06-24T08:53:45;10.70;;;5.20;;
54368;SDS011;40266;52.434;17.056;2023-06-24T08:56:30;6.80;;;5.10;;
54368;SDS011;40266;52.434;17.056;2023-06-24T08:59:17;8.40;;;4.60;;
54368;SDS011;40266;52.434;17.056;2023-06-24T09:02:02;6.70;;;4.50;;
54368;SDS011;40266;52.434;17.056;2023-06-24T09:04:45;11.00;;;5.70;;
54368;SDS011;40266;52.434;17.056;2023-06-24T09:07:28;9.70;;;5.00;;
54368;SDS011;40266;52.434;17.056;2023-06-24T09:10:13;9.20;;;5.80;;
54368;SDS011;40266;52.434;17.056;2023-06-24T09:13:15;11.70;;;5.30;;
54368;SDS011;40266;52.434;17.056;2023-06-24T09:15:58;8.40;;;5.00;;
54368;SDS011;40266;52.434;17.056;2023-06-24T09:18:41;7.30;;;4.50;;
54368;SDS011;40266;52.434;17.056;2023-06-24T09:21:25;9.80;;;5.20;;
54368;SDS011;40266;52.434;17.056;2023-06-24T09:24:09;7.20;;;4.90;;
54368;SDS011;40266;52.434;17.056;2023-06-24T09:26:53;8.80;;;5.40;;
54368;SDS011;40266;52.434;17.056;2023-06-24T09:29:41;7.60;;;5.30;;
54368;SDS011;40266;52.434;17.056;2023-06-24T09:32:31;8.90;;;5.80;;
54368;SDS011;40266;52.434;17.056;2023-06-24T09:35:19;8.80;;;5.40;;
54368;SDS011;40266;52.434;17.056;2023-06-24T09:38:03;8.80;;;5.40;;
54368;SDS011;40266;52.434;17.056;2023-06-24T09:40:46;10.70;;;5.10;;
54368;SDS011;40266;52.434;17.056;2023-06-24T09:43:34;8.70;;;5.50;;
54368;SDS011;40266;52.434;17.056;2023-06-24T09:46:21;11.80;;;5.40;;
54368;SDS011;40266;52.434;17.056;2023-06-24T09:49:04;8.00;;;4.50;;
54368;SDS011;40266;52.434;17.056;2023-06-24T09:51:49;6.50;;;4.80;;
54368;SDS011;40266;52.434;17.056;2023-06-24T09:54:38;8.90;;;4.40;;
54368;SDS011;40266;52.434;17.056;2023-06-24T09:57:31;9.60;;;4.90;;
54368;SDS011;40266;52.434;17.056;2023-06-24T10:00:20;5.50;;;4.50;;
54368;SDS011;40266;52.434;17.056;2023-06-24T10:03:05;7.90;;;4.60;;
54368;SDS011;40266;52.434;17.056;2023-06-24T10:05:49;9.10;;;4.90;;
54368;SDS011;40266;52.434;17.056;2023-06-24T10:08:33;5.80;;;4.00;;
54368;SDS011;40266;52.434;17.056;2023-06-24T10:11:16;8.90;;;4.90;;
54368;SDS011;40266;52.434;17.056;2023-06-24T10:13:59;7.20;;;5.00;;
54368;SDS011;40266;52.434;17.056;2023-06-24T10:16:42;8.30;;;4.40;;
54368;SDS011;40266;52.434;17.056;2023-06-24T10:19:25;8.10;;;4.60;;
54368;SDS011;40266;52.434;17.056;2023-06-24T10:22:10;9.90;;;4.30;;
54368;SDS011;40266;52.434;17.056;2023-06-24T10:24:54;6.80;;;4.30;;
54368;SDS011;40266;52.434;17.056;2023-06-24T10:27:40;7.60;;;4.80;;
54368;SDS011;40266;52.434;17.056;2023-06-24T10:30:25;7.30;;;4.40;;
54368;SDS011;40266;52.434;17.056;2023-06-24T10:33:11;8.00;;;4.60;;
54368;SDS011;40266;52.434;17.056;2023-06-24T10:35:54;7.30;;;4.50;;
54368;SDS011;40266;52.434;17.056;2023-06-24T10:38:37;8.10;;;4.60;;
54368;SDS011;40266;52.434;17.056;2023-06-24T10:41:20;6.90;;;4.40;;
54368;SDS011;40266;52.434;17.056;2023-06-24T10:44:14;8.20;;;4.30;;
54368;SDS011;40266;52.434;17.056;2023-06-24T10:46:58;8.90;;;4.30;;
54368;SDS011;40266;52.434;17.056;2023-06-24T10:49:41;5.50;;;4.10;;
54368;SDS011;40266;52.434;17.056;2023-06-24T10:52:24;9.90;;;4.80;;
54368;SDS011;40266;52.434;17.056;2023-06-24T10:55:08;9.30;;;4.80;;
54368;SDS011;40266;52.434;17.056;2023-06-24T10:57:51;6.60;;;4.50;;
54368;SDS011;40266;52.434;17.056;2023-06-24T11:00:34;6.90;;;4.60;;
54368;SDS011;40266;52.434;17.056;2023-06-24T11:03:18;9.50;;;5.10;;
54368;SDS011;40266;52.434;17.056;2023-06-24T11:06:03;5.70;;;4.00;;
54368;SDS011;40266;52.434;17.056;2023-06-24T11:08:47;8.80;;;4.60;;
54368;SDS011;40266;52.434;17.056;2023-06-24T11:11:30;8.40;;;5.10;;
54368;SDS011;40266;52.434;17.056;2023-06-24T11:14:15;6.00;;;4.30;;
54368;SDS011;40266;52.434;17.056;2023-06-24T11:17:00;8.70;;;4.90;;
54368;SDS011;40266;52.434;17.056;2023-06-24T11:19:44;8.30;;;4.70;;
54368;SDS011;40266;52.434;17.056;2023-06-24T11:22:27;8.90;;;4.60;;
54368;SDS011;40266;52.434;17.056;2023-06-24T11:25:18;5.40;;;4.00;;
54368;SDS011;40266;52.434;17.056;2023-06-24T11:28:02;10.50;;;5.20;;
54368;SDS011;40266;52.434;17.056;2023-06-24T11:30:45;7.10;;;4.30;;
54368;SDS011;40266;52.434;17.056;2023-06-24T11:33:28;7.00;;;4.80;;
54368;SDS011;40266;52.434;17.056;2023-06-24T11:36:11;6.50;;;4.40;;
54368;SDS011;40266;52.434;17.056;2023-06-24T11:38:54;7.60;;;4.80;;
54368;SDS011;40266;52.434;17.056;2023-06-24T11:41:37;9.50;;;4.90;;
54368;SDS011;40266;52.434;17.056;2023-06-24T11:44:23;6.40;;;4.50;;
54368;SDS011;40266;52.434;17.056;2023-06-24T11:47:07;6.00;;;4.00;;
54368;SDS011;40266;52.434;17.056;2023-06-24T11:49:51;8.00;;;4.20;;
54368;SDS011;40266;52.434;17.056;2023-06-24T11:55:26;9.60;;;4.80;;
54368;SDS011;40266;52.434;17.056;2023-06-24T11:58:10;7.40;;;4.40;;
54368;SDS011;40266;52.434;17.056;2023-06-24T12:01:02;5.80;;;4.50;;
54368;SDS011;40266;52.434;17.056;2023-06-24T12:03:45;8.70;;;4.80;;
54368;SDS011;40266;52.434;17.056;2023-06-24T12:06:29;7.30;;;4.30;;
54368;SDS011;40266;52.434;17.056;2023-06-24T12:09:12;7.80;;;3.80;;
54368;SDS011;40266;52.434;17.056;2023-06-24T12:11:55;13.50;;;4.70;;
54368;SDS011;40266;52.434;17.056;2023-06-24T12:14:38;9.00;;;4.60;;
54368;SDS011;40266;52.434;17.056;2023-06-24T12:17:21;6.30;;;4.20;;
54368;SDS011;40266;52.434;17.056;2023-06-24T12:20:04;8.50;;;4.20;;
54368;SDS011;40266;52.434;17.056;2023-06-24T12:22:48;5.80;;;4.20;;
54368;SDS011;40266;52.434;17.056;2023-06-24T12:25:32;8.00;;;4.30;;
54368;SDS011;40266;52.434;17.056;2023-06-24T12:28:15;5.90;;;3.90;;
54368;SDS011;40266;52.434;17.056;2023-06-24T12:30:58;10.70;;;4.90;;
54368;SDS011;40266;52.434;17.056;2023-06-24T12:33:41;6.20;;;4.40;;
54368;SDS011;40266;52.434;17.056;2023-06-24T12:36:24;6.80;;;4.70;;
54368;SDS011;40266;52.434;17.056;2023-06-24T12:39:07;8.40;;;4.90;;
54368;SDS011;40266;52.434;17.056;2023-06-24T12:41:50;7.40;;;4.60;;
54368;SDS011;40266;52.434;17.056;2023-06-24T12:44:34;6.70;;;4.50;;
54368;SDS011;40266;52.434;17.056;2023-06-24T12:47:17;5.90;;;4.10;;
54368;SDS011;40266;52.434;17.056;2023-06-24T12:50:00;10.50;;;4.70;;
54368;SDS011;40266;52.434;17.056;2023-06-24T12:52:43;7.60;;;4.30;;
54368;SDS011;40266;52.434;17.056;2023-06-24T12:55:26;8.10;;;4.90;;
54368;SDS011;40266;52.434;17.056;2023-06-24T12:58:09;5.20;;;4.10;;
54368;SDS011;40266;52.434;17.056;2023-06-24T13:00:52;5.80;;;4.20;;
54368;SDS011;40266;52.434;17.056;2023-06-24T13:03:35;9.40;;;4.30;;
54368;SDS011;40266;52.434;17.056;2023-06-24T13:06:18;7.90;;;4.40;;
54368;SDS011;40266;52.434;17.056;2023-06-24T13:09:01;9.60;;;4.60;;
54368;SDS011;40266;52.434;17.056;2023-06-24T13:11:45;7.30;;;4.70;;
54368;SDS011;40266;52.434;17.056;2023-06-24T13:14:28;11.90;;;4.80;;
54368;SDS011;40266;52.434;17.056;2023-06-24T13:17:12;6.60;;;3.90;;
54368;SDS011;40266;52.434;17.056;2023-06-24T13:19:55;4.60;;;4.10;;
54368;SDS011;40266;52.434;17.056;2023-06-24T13:22:39;6.90;;;4.60;;
54368;SDS011;40266;52.434;17.056;2023-06-24T13:25:21;9.60;;;5.20;;
54368;SDS011;40266;52.434;17.056;2023-06-24T13:28:04;7.80;;;4.70;;
54368;SDS011;40266;52.434;17.056;2023-06-24T13:30:48;7.10;;;4.90;;
54368;SDS011;40266;52.434;17.056;2023-06-24T13:33:32;9.20;;;4.90;;
54368;SDS011;40266;52.434;17.056;2023-06-24T13:39:34;7.20;;;4.90;;
54368;SDS011;40266;52.434;17.056;2023-06-24T13:42:23;6.90;;;4.30;;
54368;SDS011;40266;52.434;17.056;2023-06-24T13:45:08;9.10;;;4.80;;
54368;SDS011;40266;52.434;17.056;2023-06-24T13:47:51;9.50;;;4.70;;
54368;SDS011;40266;52.434;17.056;2023-06-24T13:50:35;10.90;;;5.20;;
54368;SDS011;40266;52.434;17.056;2023-06-24T13:53:18;7.10;;;4.40;;
54368;SDS011;40266;52.434;17.056;2023-06-24T13:56:01;8.70;;;4.90;;
54368;SDS011;40266;52.434;17.056;2023-06-24T13:58:44;5.30;;;4.50;;
54368;SDS011;40266;52.434;17.056;2023-06-24T14:01:28;5.80;;;4.40;;
54368;SDS011;40266;52.434;17.056;2023-06-24T14:04:14;6.50;;;4.60;;
54368;SDS011;40266;52.434;17.056;2023-06-24T14:06:57;7.90;;;4.70;;
54368;SDS011;40266;52.434;17.056;2023-06-24T14:09:40;8.60;;;5.00;;
54368;SDS011;40266;52.434;17.056;2023-06-24T14:12:23;10.40;;;5.20;;
54368;SDS011;40266;52.434;17.056;2023-06-24T14:15:07;8.00;;;5.50;;
54368;SDS011;40266;52.434;17.056;2023-06-24T14:17:51;7.50;;;5.40;;
54368;SDS011;40266;52.434;17.056;2023-06-24T14:20:34;7.00;;;4.90;;
54368;SDS011;40266;52.434;17.056;2023-06-24T14:23:17;8.70;;;5.60;;
54368;SDS011;40266;52.434;17.056;2023-06-24T14:26:00;9.60;;;4.80;;
54368;SDS011;40266;52.434;17.056;2023-06-24T14:28:44;8.30;;;5.20;;
54368;SDS011;40266;52.434;17.056;2023-06-24T14:31:26;8.30;;;5.50;;
54368;SDS011;40266;52.434;17.056;2023-06-24T14:34:09;7.60;;;5.20;;
54368;SDS011;40266;52.434;17.056;2023-06-24T14:36:52;9.40;;;5.30;;
54368;SDS011;40266;52.434;17.056;2023-06-24T14:39:35;12.30;;;7.00;;
54368;SDS011;40266;52.434;17.056;2023-06-24T14:42:18;7.60;;;5.20;;
54368;SDS011;40266;52.434;17.056;2023-06-24T14:45:01;10.40;;;5.40;;
54368;SDS011;40266;52.434;17.056;2023-06-24T14:47:44;7.80;;;5.20;;
54368;SDS011;40266;52.434;17.056;2023-06-24T14:50:28;8.90;;;5.60;;
54368;SDS011;40266;52.434;17.056;2023-06-24T14:53:11;8.50;;;4.70;;
54368;SDS011;40266;52.434;17.056;2023-06-24T14:55:54;11.30;;;5.80;;
54368;SDS011;40266;52.434;17.056;2023-06-24T14:58:37;9.20;;;5.50;;
54368;SDS011;40266;52.434;17.056;2023-06-24T15:01:20;8.10;;;5.00;;
54368;SDS011;40266;52.434;17.056;2023-06-24T15:04:03;10.30;;;5.80;;
54368;SDS011;40266;52.434;17.056;2023-06-24T15:06:47;7.00;;;5.20;;
54368;SDS011;40266;52.434;17.056;2023-06-24T15:09:30;8.60;;;5.70;;
54368;SDS011;40266;52.434;17.056;2023-06-24T15:12:13;8.10;;;5.70;;
54368;SDS011;40266;52.434;17.056;2023-06-24T15:14:56;12.10;;;5.80;;
54368;SDS011;40266;52.434;17.056;2023-06-24T15:17:40;9.90;;;5.60;;
54368;SDS011;40266;52.434;17.056;2023-06-24T15:20:27;7.90;;;5.00;;
54368;SDS011;40266;52.434;17.056;2023-06-24T15:23:10;9.90;;;5.80;;
54368;SDS011;40266;52.434;17.056;2023-06-24T15:25:53;9.00;;;5.60;;
54368;SDS011;40266;52.434;17.056;2023-06-24T15:28:36;9.20;;;5.50;;
54368;SDS011;40266;52.434;17.056;2023-06-24T15:31:20;13.50;;;6.20;;
54368;SDS011;40266;52.434;17.056;2023-06-24T15:34:03;8.40;;;5.60;;
54368;SDS011;40266;52.434;17.056;2023-06-24T15:36:46;10.70;;;5.50;;
54368;SDS011;40266;52.434;17.056;2023-06-24T15:39:29;6.70;;;5.10;;
54368;SDS011;40266;52.434;17.056;2023-06-24T15:42:12;8.00;;;5.10;;
54368;SDS011;40266;52.434;17.056;2023-06-24T15:44:55;7.90;;;4.70;;
54368;SDS011;40266;52.434;17.056;2023-06-24T15:47:38;8.00;;;5.00;;
54368;SDS011;40266;52.434;17.056;2023-06-24T15:50:22;7.40;;;5.70;;
54368;SDS011;40266;52.434;17.056;2023-06-24T15:53:05;10.40;;;6.00;;
54368;SDS011;40266;52.434;17.056;2023-06-24T15:55:48;7.90;;;5.80;;
54368;SDS011;40266;52.434;17.056;2023-06-24T15:58:31;9.00;;;5.90;;
54368;SDS011;40266;52.434;17.056;2023-06-24T16:01:15;10.10;;;5.20;;
54368;SDS011;40266;52.434;17.056;2023-06-24T16:03:58;9.00;;;6.00;;
54368;SDS011;40266;52.434;17.056;2023-06-24T16:06:41;7.60;;;5.40;;
54368;SDS011;40266;52.434;17.056;2023-06-24T16:09:24;7.60;;;5.10;;
54368;SDS011;40266;52.434;17.056;2023-06-24T16:12:07;9.10;;;5.30;;
54368;SDS011;40266;52.434;17.056;2023-06-24T16:14:50;11.20;;;5.10;;
54368;SDS011;40266;52.434;17.056;2023-06-24T16:17:33;7.80;;;4.90;;
54368;SDS011;40266;52.434;17.056;2023-06-24T16:20:16;7.60;;;5.10;;
54368;SDS011;40266;52.434;17.056;2023-06-24T16:22:59;5.70;;;4.90;;
54368;SDS011;40266;52.434;17.056;2023-06-24T16:25:45;10.30;;;5.80;;
54368;SDS011;40266;52.434;17.056;2023-06-24T16:28:28;7.20;;;5.10;;
54368;SDS011;40266;52.434;17.056;2023-06-24T16:31:11;7.80;;;5.30;;
54368;SDS011;40266;52.434;17.056;2023-06-24T16:33:54;10.00;;;5.70;;
54368;SDS011;40266;52.434;17.056;2023-06-24T16:36:37;8.50;;;5.30;;
54368;SDS011;40266;52.434;17.056;2023-06-24T16:39:20;7.50;;;5.50;;
54368;SDS011;40266;52.434;17.056;2023-06-24T16:42:04;11.60;;;5.60;;
54368;SDS011;40266;52.434;17.056;2023-06-24T16:44:47;7.00;;;5.40;;
54368;SDS011;40266;52.434;17.056;2023-06-24T16:47:30;9.60;;;5.40;;
54368;SDS011;40266;52.434;17.056;2023-06-24T16:50:14;8.90;;;6.10;;
54368;SDS011;40266;52.434;17.056;2023-06-24T16:52:57;9.20;;;5.30;;
54368;SDS011;40266;52.434;17.056;2023-06-24T16:55:40;8.30;;;5.50;;
54368;SDS011;40266;52.434;17.056;2023-06-24T16:58:23;12.20;;;5.20;;
54368;SDS011;40266;52.434;17.056;2023-06-24T17:01:06;8.90;;;6.10;;
54368;SDS011;40266;52.434;17.056;2023-06-24T17:03:50;11.00;;;5.90;;
54368;SDS011;40266;52.434;17.056;2023-06-24T17:06:33;13.00;;;7.00;;
54368;SDS011;40266;52.434;17.056;2023-06-24T17:09:16;10.50;;;6.00;;
54368;SDS011;40266;52.434;17.056;2023-06-24T17:11:59;10.00;;;5.90;;
54368;SDS011;40266;52.434;17.056;2023-06-24T17:14:43;12.30;;;5.80;;
54368;SDS011;40266;52.434;17.056;2023-06-24T17:17:26;9.00;;;6.00;;
54368;SDS011;40266;52.434;17.056;2023-06-24T17:20:09;12.10;;;6.50;;
54368;SDS011;40266;52.434;17.056;2023-06-24T17:22:52;12.30;;;5.20;;
54368;SDS011;40266;52.434;17.056;2023-06-24T17:25:35;12.70;;;6.20;;
54368;SDS011;40266;52.434;17.056;2023-06-24T17:28:18;9.60;;;5.40;;
54368;SDS011;40266;52.434;17.056;2023-06-24T17:31:01;10.50;;;5.70;;
54368;SDS011;40266;52.434;17.056;2023-06-24T17:33:44;11.40;;;6.80;;
54368;SDS011;40266;52.434;17.056;2023-06-24T17:36:27;10.30;;;6.20;;
54368;SDS011;40266;52.434;17.056;2023-06-24T17:39:10;9.90;;;6.10;;
54368;SDS011;40266;52.434;17.056;2023-06-24T17:41:53;13.30;;;6.50;;